Time;durP1;ratioP1;P1;durP2;ratioP2;P2;SDS_P1;SDS_P2;PMS_P1;PMS_P2;Temp;Humidity;BMP_temperature;BMP_pressure;BME280_temperature;BME280_humidity;BME280_pressure;Samples;Min_cycle;Max_cycle;Signal;HPM_P1;HPM_P2
2024/04/01 00:01:49;;;;;;;7.57;1.48;;;;;;;;;;4934466;29;20491;-65
2024/04/01 00:04:15;;;;;;;7.97;1.42;;;;;;;;;;4933776;29;20044;-66
2024/04/01 00:06:41;;;;;;;9.32;1.50;;;;;;;;;;4932697;29;20046;-66
2024/04/01 00:09:07;;;;;;;8.48;1.67;;;;;;;;;;4950784;28;20062;-66
2024/04/01 00:11:33;;;;;;;7.03;1.30;;;;;;;;;;4947067;28;20040;-66
2024/04/01 00:14:00;;;;;;;12.00;1.85;;;;;;;;;;4930412;29;20067;-67
2024/04/01 00:16:26;;;;;;;7.00;2.15;;;;;;;;;;4931922;29;20042;-66
2024/04/01 00:18:52;;;;;;;7.32;2.10;;;;;;;;;;4932566;29;20040;-69
2024/04/01 00:21:18;;;;;;;9.07;1.63;;;;;;;;;;4934365;29;20043;-67
2024/04/01 00:23:46;;;;;;;9.80;2.20;;;;;;;;;;4935362;29;20048;-67
2024/04/01 00:26:12;;;;;;;9.40;1.80;;;;;;;;;;4949957;28;20094;-68
2024/04/01 00:28:38;;;;;;;11.27;1.77;;;;;;;;;;4949673;28;20602;-67
2024/04/01 00:31:04;;;;;;;9.95;2.15;;;;;;;;;;4933689;29;20052;-67
2024/04/01 00:33:30;;;;;;;14.93;2.13;;;;;;;;;;4931567;29;20459;-64
2024/04/01 00:35:56;;;;;;;13.23;1.80;;;;;;;;;;4937549;28;20052;-68
2024/04/01 00:38:25;;;;;;;7.95;2.30;;;;;;;;;;4932910;29;20040;-67
2024/04/01 00:40:52;;;;;;;;;;;;;;;;;;4949817;28;20412;-66
2024/04/01 00:43:18;;;;;;;14.10;2.25;;;;;;;;;;4933360;29;19978;-67
2024/04/01 00:45:47;;;;;;;8.35;1.80;;;;;;;;;;4934826;29;20431;-67
2024/04/01 00:48:17;;;;;;;;;;;;;;;;;;4934578;29;20035;-66
2024/04/01 00:50:46;;;;;;;16.33;2.28;;;;;;;;;;4933089;29;19914;-67
2024/04/01 00:53:12;;;;;;;;;;;;;;;;;;4933060;29;20544;-67
2024/04/01 00:55:41;;;;;;;7.45;1.77;;;;;;;;;;4950803;28;20449;-67
2024/04/01 00:58:08;;;;;;;7.55;2.00;;;;;;;;;;4936098;29;20032;-67
2024/04/01 01:00:34;;;;;;;10.48;2.10;;;;;;;;;;4938347;28;20058;-67
2024/04/01 01:03:01;;;;;;;8.00;1.73;;;;;;;;;;4946923;28;20044;-66
2024/04/01 01:05:28;;;;;;;8.00;2.10;;;;;;;;;;4934362;28;20362;-67
2024/04/01 01:07:54;;;;;;;15.55;2.95;;;;;;;;;;4933388;29;20060;-66
2024/04/01 01:10:22;;;;;;;5.45;1.60;;;;;;;;;;4938611;29;20058;-67
2024/04/01 01:12:49;;;;;;;9.00;1.88;;;;;;;;;;4931734;29;20051;-66
2024/04/01 01:15:15;;;;;;;9.00;1.90;;;;;;;;;;4933771;29;20040;-66
2024/04/01 01:17:42;;;;;;;8.18;2.53;;;;;;;;;;4932384;29;20036;-67
2024/04/01 01:20:11;;;;;;;10.20;1.92;;;;;;;;;;4933515;29;20047;-66
2024/04/01 01:22:41;;;;;;;14.38;2.05;;;;;;;;;;4931881;29;20419;-66
2024/04/01 01:25:09;;;;;;;10.32;1.90;;;;;;;;;;4933329;29;20038;-66
2024/04/01 01:27:35;;;;;;;10.73;1.85;;;;;;;;;;4932719;29;20039;-67
2024/04/01 01:30:14;;;;;;;6.82;1.70;;;;;;;;;;4935829;29;20042;-67
2024/04/01 01:32:59;;;;;;;8.38;2.13;;;;;;;;;;4933977;29;20043;-68
2024/04/01 01:35:26;;;;;;;6.00;1.50;;;;;;;;;;4933041;29;20055;-67
2024/04/01 01:37:53;;;;;;;6.40;2.03;;;;;;;;;;4933662;29;20058;-66
2024/04/01 01:40:20;;;;;;;9.07;2.17;;;;;;;;;;4933486;29;20043;-66
2024/04/01 01:42:47;;;;;;;5.53;1.65;;;;;;;;;;4932909;29;20128;-66
2024/04/01 01:45:13;;;;;;;6.43;1.85;;;;;;;;;;4931562;29;20040;-67
2024/04/01 01:47:39;;;;;;;8.27;1.60;;;;;;;;;;4933769;29;20062;-66
2024/04/01 01:50:07;;;;;;;7.90;2.00;;;;;;;;;;4949559;28;20407;-65
2024/04/01 01:52:34;;;;;;;8.60;1.98;;;;;;;;;;4934677;29;20059;-66
2024/04/01 01:55:00;;;;;;;11.25;1.83;;;;;;;;;;4933196;29;20051;-66
2024/04/01 01:57:30;;;;;;;8.52;1.70;;;;;;;;;;4937000;29;20031;-66
2024/04/01 01:59:56;;;;;;;10.25;1.60;;;;;;;;;;4936152;28;20044;-66
2024/04/01 02:02:22;;;;;;;8.50;2.47;;;;;;;;;;4930890;29;20039;-66
2024/04/01 02:04:49;;;;;;;9.63;2.20;;;;;;;;;;4932542;29;20046;-66
2024/04/01 02:07:15;;;;;;;7.57;1.70;;;;;;;;;;4951452;28;20040;-66
2024/04/01 02:09:41;;;;;;;10.00;1.67;;;;;;;;;;4936724;29;20051;-66
2024/04/01 02:12:07;;;;;;;11.45;1.88;;;;;;;;;;4932228;29;20052;-66
2024/04/01 02:14:34;;;;;;;5.35;2.00;;;;;;;;;;4947644;28;20070;-66
2024/04/01 02:17:00;;;;;;;6.78;1.55;;;;;;;;;;4928523;29;20418;-65
2024/04/01 02:19:26;;;;;;;9.85;1.88;;;;;;;;;;4946062;28;20043;-66
2024/04/01 02:21:52;;;;;;;11.07;1.83;;;;;;;;;;4930663;29;20535;-66
2024/04/01 02:24:18;;;;;;;8.88;1.80;;;;;;;;;;4930160;28;20043;-66
2024/04/01 02:26:45;;;;;;;12.55;2.28;;;;;;;;;;4933272;29;20059;-66
2024/04/01 02:29:11;;;;;;;6.05;1.90;;;;;;;;;;4930543;29;20051;-68
2024/04/01 02:31:37;;;;;;;5.07;1.92;;;;;;;;;;4930120;29;20503;-66
2024/04/01 02:34:03;;;;;;;8.73;2.55;;;;;;;;;;4931088;29;20047;-67
2024/04/01 02:36:30;;;;;;;12.30;2.40;;;;;;;;;;4931198;29;20050;-66
2024/04/01 02:38:56;;;;;;;12.77;2.35;;;;;;;;;;4932071;28;20044;-66
2024/04/01 02:41:22;;;;;;;8.25;2.10;;;;;;;;;;4946582;28;20040;-66
2024/04/01 02:43:48;;;;;;;13.75;2.15;;;;;;;;;;4931735;29;20062;-66
2024/04/01 02:46:14;;;;;;;8.40;2.10;;;;;;;;;;4931156;29;20039;-67
2024/04/01 02:48:40;;;;;;;18.17;2.17;;;;;;;;;;4933842;29;20035;-67
2024/04/01 02:51:06;;;;;;;14.38;3.40;;;;;;;;;;4931280;29;20055;-66
2024/04/01 02:53:32;;;;;;;9.32;2.58;;;;;;;;;;4929512;29;20050;-66
2024/04/01 02:55:59;;;;;;;8.07;2.30;;;;;;;;;;4930800;29;20039;-66
2024/04/01 02:58:25;;;;;;;8.38;1.73;;;;;;;;;;4934717;29;20511;-66
2024/04/01 03:00:51;;;;;;;8.57;1.95;;;;;;;;;;4927210;29;20055;-65
2024/04/01 03:03:17;;;;;;;6.15;1.65;;;;;;;;;;4930732;29;20071;-66
2024/04/01 03:05:43;;;;;;;6.78;1.83;;;;;;;;;;4932052;29;20517;-66
2024/04/01 03:08:10;;;;;;;11.45;2.00;;;;;;;;;;4929328;29;20031;-66
2024/04/01 03:10:36;;;;;;;7.45;2.08;;;;;;;;;;4950895;28;20376;-66
2024/04/01 03:13:06;;;;;;;5.18;1.70;;;;;;;;;;4935006;29;20028;-66
2024/04/01 03:15:34;;;;;;;11.48;2.80;;;;;;;;;;4951514;28;20063;-66
2024/04/01 03:18:00;;;;;;;9.10;1.80;;;;;;;;;;4932922;29;20032;-66
2024/04/01 03:20:26;;;;;;;7.10;1.77;;;;;;;;;;4934648;29;20034;-66
2024/04/01 03:22:52;;;;;;;9.30;1.92;;;;;;;;;;4933359;29;20198;-66
2024/04/01 03:25:18;;;;;;;8.40;2.00;;;;;;;;;;4934328;29;20031;-66
2024/04/01 03:27:44;;;;;;;8.20;2.00;;;;;;;;;;4935256;29;20054;-66
2024/04/01 03:30:11;;;;;;;7.97;1.80;;;;;;;;;;4935375;29;20042;-66
2024/04/01 03:32:37;;;;;;;7.25;2.15;;;;;;;;;;4933485;29;20044;-65
2024/04/01 03:35:07;;;;;;;4.45;1.70;;;;;;;;;;4938528;29;20043;-66
2024/04/01 03:37:33;;;;;;;9.93;3.33;;;;;;;;;;4935104;29;20051;-67
2024/04/01 03:39:59;;;;;;;10.52;2.28;;;;;;;;;;4934399;28;20051;-63
2024/04/01 03:42:25;;;;;;;4.95;2.00;;;;;;;;;;4934184;29;20043;-66
2024/04/01 03:44:54;;;;;;;8.85;1.80;;;;;;;;;;4935902;29;20043;-66
2024/04/01 03:47:20;;;;;;;7.50;1.67;;;;;;;;;;4934920;29;20052;-66
2024/04/01 03:49:47;;;;;;;12.38;2.35;;;;;;;;;;4935879;29;20299;-66
2024/04/01 03:52:13;;;;;;;8.10;2.00;;;;;;;;;;4936134;29;20055;-65
2024/04/01 03:54:39;;;;;;;8.02;1.77;;;;;;;;;;4948883;28;20039;-66
2024/04/01 03:57:05;;;;;;;12.38;1.75;;;;;;;;;;4934060;29;20128;-66
2024/04/01 03:59:31;;;;;;;16.58;2.22;;;;;;;;;;4933703;29;20550;-64
2024/04/01 04:01:57;;;;;;;11.65;2.50;;;;;;;;;;4935062;29;20399;-66
2024/04/01 04:04:23;;;;;;;11.15;2.28;;;;;;;;;;4936308;29;20039;-66
2024/04/01 04:06:49;;;;;;;7.63;1.73;;;;;;;;;;4933270;29;20043;-67
2024/04/01 04:09:15;;;;;;;6.03;1.75;;;;;;;;;;4937046;28;20621;-63
2024/04/01 04:11:49;;;;;;;9.65;2.28;;;;;;;;;;4932626;29;20043;-64
2024/04/01 04:14:18;;;;;;;6.38;2.03;;;;;;;;;;4936093;29;20050;-66
2024/04/01 04:16:45;;;;;;;;;;;;;;;;;;4933303;29;20036;-66
2024/04/01 04:19:11;;;;;;;5.95;1.65;;;;;;;;;;4933578;29;20298;-66
2024/04/01 04:21:37;;;;;;;7.38;2.03;;;;;;;;;;4933542;28;20051;-66
2024/04/01 04:24:04;;;;;;;9.35;2.30;;;;;;;;;;4933601;29;20036;-67
2024/04/01 04:26:30;;;;;;;11.48;2.22;;;;;;;;;;4935228;29;20050;-66
2024/04/01 04:28:57;;;;;;;7.68;2.17;;;;;;;;;;4940208;28;20043;-66
2024/04/01 04:31:23;;;;;;;8.75;1.67;;;;;;;;;;4933531;28;20051;-66
2024/04/01 04:33:49;;;;;;;10.55;3.15;;;;;;;;;;4934084;29;20036;-66
2024/04/01 04:36:16;;;;;;;11.25;2.63;;;;;;;;;;4948272;28;20055;-67
2024/04/01 04:38:42;;;;;;;8.80;2.00;;;;;;;;;;4935075;29;20051;-65
2024/04/01 04:41:08;;;;;;;7.50;2.17;;;;;;;;;;4932860;29;20039;-66
2024/04/01 04:43:34;;;;;;;8.55;1.80;;;;;;;;;;4936769;29;20062;-67
2024/04/01 04:46:00;;;;;;;9.63;2.03;;;;;;;;;;4951293;28;20044;-66
2024/04/01 04:48:26;;;;;;;10.98;2.20;;;;;;;;;;4937645;29;20046;-66
2024/04/01 04:50:52;;;;;;;9.45;1.80;;;;;;;;;;4932858;29;20036;-66
2024/04/01 04:53:18;;;;;;;9.10;2.20;;;;;;;;;;4934600;29;20043;-67
2024/04/01 04:55:45;;;;;;;6.88;2.28;;;;;;;;;;4935960;29;20047;-66
2024/04/01 04:58:11;;;;;;;7.32;2.03;;;;;;;;;;4937297;29;20518;-66
2024/04/01 05:00:37;;;;;;;17.10;2.70;;;;;;;;;;4935731;28;20057;-67
2024/04/01 05:03:06;;;;;;;8.20;2.25;;;;;;;;;;4932413;29;20407;-67
2024/04/01 05:05:32;;;;;;;11.47;3.23;;;;;;;;;;4935426;29;20040;-68
2024/04/01 05:08:00;;;;;;;6.68;2.38;;;;;;;;;;4937325;29;20310;-66
2024/04/01 05:10:26;;;;;;;9.38;2.72;;;;;;;;;;4934648;29;20047;-65
2024/04/01 05:12:52;;;;;;;8.50;2.17;;;;;;;;;;4930677;29;20047;-67
2024/04/01 05:15:18;;;;;;;14.13;2.78;;;;;;;;;;4933504;28;20550;-66
2024/04/01 05:17:44;;;;;;;10.60;3.35;;;;;;;;;;4933342;29;20078;-67
2024/04/01 05:20:13;;;;;;;11.80;3.05;;;;;;;;;;4951406;28;20043;-66
2024/04/01 05:22:39;;;;;;;8.18;2.70;;;;;;;;;;4933710;29;20059;-65
2024/04/01 05:25:06;;;;;;;4.88;3.17;;;;;;;;;;5001597;22;20052;-63
2024/04/01 05:27:32;;;;;;;11.85;3.80;;;;;;;;;;5007537;28;20421;-62
2024/04/01 05:30:03;;;;;;;14.55;4.78;;;;;;;;;;5008209;28;20053;-63
2024/04/01 05:32:31;;;;;;;16.42;4.95;;;;;;;;;;5007665;28;20409;-63
2024/04/01 05:34:57;;;;;;;10.82;4.55;;;;;;;;;;5010236;28;20445;-64
2024/04/01 05:37:24;;;;;;;13.95;4.28;;;;;;;;;;5009572;28;20029;-65
2024/04/01 05:39:51;;;;;;;9.60;3.92;;;;;;;;;;5008103;28;20045;-64
2024/04/01 05:42:18;;;;;;;10.75;4.35;;;;;;;;;;5007912;28;20042;-62
2024/04/01 05:44:44;;;;;;;12.77;4.15;;;;;;;;;;5009095;28;20836;-62
2024/04/01 05:47:10;;;;;;;10.20;4.10;;;;;;;;;;5011107;28;20053;-62
2024/04/01 05:49:37;;;;;;;12.82;4.10;;;;;;;;;;5010044;28;20064;-60
2024/04/01 05:52:03;;;;;;;12.73;3.95;;;;;;;;;;5008681;28;20049;-60
2024/04/01 05:54:30;;;;;;;9.00;3.20;;;;;;;;;;5013051;28;20050;-61
2024/04/01 05:56:57;;;;;;;12.43;3.30;;;;;;;;;;5008466;28;20382;-62
2024/04/01 05:59:25;;;;;;;6.30;3.80;;;;;;;;;;5012034;28;20423;-65
2024/04/01 06:01:55;;;;;;;7.15;2.92;;;;;;;;;;5005959;28;20042;-62
2024/04/01 06:04:22;;;;;;;7.28;3.03;;;;;;;;;;5012595;28;20057;-64
2024/04/01 06:06:49;;;;;;;9.30;3.22;;;;;;;;;;5012558;28;20045;-63
2024/04/01 06:09:16;;;;;;;7.40;3.33;;;;;;;;;;5008329;28;20037;-62
2024/04/01 06:11:42;;;;;;;7.53;3.65;;;;;;;;;;5008373;28;20050;-66
2024/04/01 06:14:09;;;;;;;5.18;3.10;;;;;;;;;;5005293;28;20037;-62
2024/04/01 06:16:36;;;;;;;4.07;2.90;;;;;;;;;;5004684;28;20057;-61
2024/04/01 06:19:02;;;;;;;5.90;3.00;;;;;;;;;;5002136;28;20046;-61
2024/04/01 06:21:29;;;;;;;6.28;3.40;;;;;;;;;;5003539;28;20058;-62
2024/04/01 06:23:55;;;;;;;5.82;3.45;;;;;;;;;;5008815;28;20034;-63
2024/04/01 06:26:21;;;;;;;8.18;4.00;;;;;;;;;;5007074;28;20042;-62
2024/04/01 06:28:48;;;;;;;5.53;3.33;;;;;;;;;;5011056;28;20707;-63
2024/04/01 06:31:15;;;;;;;7.72;2.95;;;;;;;;;;5006798;28;20053;-63
2024/04/01 06:33:42;;;;;;;10.45;3.38;;;;;;;;;;5007923;28;20374;-63
2024/04/01 06:36:10;;;;;;;5.88;2.10;;;;;;;;;;5009550;28;20042;-63
2024/04/01 06:38:37;;;;;;;7.45;1.50;;;;;;;;;;5011211;28;20060;-63
2024/04/01 06:41:03;;;;;;;2.92;1.27;;;;;;;;;;5009667;28;20033;-62
2024/04/01 06:43:30;;;;;;;3.35;1.40;;;;;;;;;;5006298;28;20076;-62
2024/04/01 06:46:00;;;;;;;2.20;1.50;;;;;;;;;;5014058;28;20037;-61
2024/04/01 06:48:27;;;;;;;2.72;1.30;;;;;;;;;;5013340;28;20053;-62
2024/04/01 06:50:53;;;;;;;6.07;1.70;;;;;;;;;;5013851;28;20037;-61
2024/04/01 06:53:21;;;;;;;4.43;1.27;;;;;;;;;;5011963;28;20033;-61
2024/04/01 06:55:47;;;;;;;2.80;1.20;;;;;;;;;;5010203;28;20045;-61
2024/04/01 06:58:14;;;;;;;2.22;1.23;;;;;;;;;;5017153;28;20446;-61
2024/04/01 07:00:41;;;;;;;3.72;1.45;;;;;;;;;;5016267;28;20041;-61
2024/04/01 07:03:08;;;;;;;4.50;1.33;;;;;;;;;;5012352;28;20056;-60
2024/04/01 07:05:34;;;;;;;4.45;1.25;;;;;;;;;;5013323;28;20502;-61
2024/04/01 07:08:01;;;;;;;4.18;1.10;;;;;;;;;;5010972;28;20053;-60
2024/04/01 07:10:29;;;;;;;4.07;1.90;;;;;;;;;;5011715;28;20069;-60
2024/04/01 07:12:56;;;;;;;4.95;1.52;;;;;;;;;;5011337;28;20046;-62
2024/04/01 07:15:23;;;;;;;3.15;1.30;;;;;;;;;;5010268;28;20416;-61
2024/04/01 07:17:51;;;;;;;3.15;1.17;;;;;;;;;;5011668;28;20040;-60
2024/04/01 07:20:17;;;;;;;2.92;0.90;;;;;;;;;;5013781;28;20033;-61
2024/04/01 07:22:44;;;;;;;3.03;0.90;;;;;;;;;;5010779;28;20045;-61
2024/04/01 07:25:10;;;;;;;2.40;0.93;;;;;;;;;;5012003;28;20056;-60
2024/04/01 07:27:36;;;;;;;1.85;0.95;;;;;;;;;;5010167;28;20041;-60
2024/04/01 07:30:03;;;;;;;0.80;0.70;;;;;;;;;;5009379;28;20080;-60
2024/04/01 07:32:31;;;;;;;2.42;0.60;;;;;;;;;;5007594;28;20045;-60
2024/04/01 07:34:58;;;;;;;1.13;0.70;;;;;;;;;;5007634;28;20049;-63
2024/04/01 07:37:25;;;;;;;2.00;0.75;;;;;;;;;;5009417;28;20037;-62
2024/04/01 07:39:54;;;;;;;2.15;0.70;;;;;;;;;;5008739;28;20053;-60
2024/04/01 07:42:20;;;;;;;0.47;0.40;;;;;;;;;;5008071;28;20040;-60
2024/04/01 07:44:47;;;;;;;2.28;0.80;;;;;;;;;;5010991;28;20038;-61
2024/04/01 07:47:13;;;;;;;2.97;1.00;;;;;;;;;;5005859;28;20037;-60
2024/04/01 07:49:39;;;;;;;1.30;0.73;;;;;;;;;;5007410;28;20042;-60
2024/04/01 07:52:06;;;;;;;3.47;1.45;;;;;;;;;;5009760;28;20038;-60
2024/04/01 07:54:33;;;;;;;3.28;1.10;;;;;;;;;;5006501;28;20053;-61
2024/04/01 07:57:02;;;;;;;7.38;3.17;;;;;;;;;;5007612;28;20052;-60
2024/04/01 07:59:32;;;;;;;3.67;0.90;;;;;;;;;;5012465;28;20473;-60
2024/04/01 08:02:00;;;;;;;1.17;0.88;;;;;;;;;;4999368;28;20057;-60
2024/04/01 08:04:27;;;;;;;8.18;4.72;;;;;;;;;;5009109;28;20034;-62
2024/04/01 08:06:54;;;;;;;3.38;1.40;;;;;;;;;;5009866;28;20065;-60
2024/04/01 08:09:21;;;;;;;2.35;1.27;;;;;;;;;;5010629;28;20425;-64
2024/04/01 08:11:48;;;;;;;1.95;0.70;;;;;;;;;;5006611;28;20037;-64
2024/04/01 08:14:14;;;;;;;0.90;0.80;;;;;;;;;;5003776;28;20026;-64
2024/04/01 08:16:44;;;;;;;2.28;0.50;;;;;;;;;;5007606;28;20057;-60
2024/04/01 08:19:11;;;;;;;0.40;0.38;;;;;;;;;;5005852;28;20359;-60
2024/04/01 08:21:37;;;;;;;1.45;0.60;;;;;;;;;;5007988;28;20033;-60
2024/04/01 08:24:04;;;;;;;0.45;0.43;;;;;;;;;;4971914;28;1112424;-60
2024/04/01 08:26:30;;;;;;;1.23;0.63;;;;;;;;;;5013281;28;20053;-60
2024/04/01 08:28:56;;;;;;;3.88;1.50;;;;;;;;;;5009534;28;20044;-61
2024/04/01 08:31:23;;;;;;;0.77;0.50;;;;;;;;;;5005864;28;20033;-61
2024/04/01 08:33:49;;;;;;;1.08;0.60;;;;;;;;;;5006180;28;20053;-61
2024/04/01 08:36:17;;;;;;;1.42;0.40;;;;;;;;;;5009370;28;20042;-61
2024/04/01 08:38:44;;;;;;;4.55;1.02;;;;;;;;;;5004558;28;20385;-61
2024/04/01 08:41:31;;;;;;;2.70;0.98;;;;;;;;;;5006711;28;20045;-64
2024/04/01 08:44:16;;;;;;;3.25;0.70;;;;;;;;;;5010457;28;20049;-63
2024/04/01 08:47:00;;;;;;;1.40;0.50;;;;;;;;;;5009085;28;20057;-64
2024/04/01 08:49:35;;;;;;;0.77;0.40;;;;;;;;;;5006038;28;20042;-64
2024/04/01 08:52:03;;;;;;;0.63;0.43;;;;;;;;;;5010038;28;20062;-63
2024/04/01 08:54:29;;;;;;;1.77;0.50;;;;;;;;;;5013201;28;20050;-61
2024/04/01 08:56:55;;;;;;;2.13;0.95;;;;;;;;;;5008808;28;20057;-63
2024/04/01 08:59:23;;;;;;;0.82;0.52;;;;;;;;;;5012759;28;20417;-63
2024/04/01 09:01:49;;;;;;;0.93;0.50;;;;;;;;;;5012802;28;20038;-60
2024/04/01 09:04:16;;;;;;;0.82;0.60;;;;;;;;;;5008921;28;20090;-63
2024/04/01 09:06:42;;;;;;;1.80;0.80;;;;;;;;;;5010567;28;20506;-63
2024/04/01 09:09:08;;;;;;;0.32;0.32;;;;;;;;;;5010654;28;20053;-62
2024/04/01 09:11:35;;;;;;;2.13;0.50;;;;;;;;;;5010204;28;20101;-62
2024/04/01 09:14:01;;;;;;;0.30;0.30;;;;;;;;;;5010505;28;20038;-64
2024/04/01 09:16:27;;;;;;;0.40;0.40;;;;;;;;;;5010066;28;20041;-63
2024/04/01 09:19:01;;;;;;;0.52;0.30;;;;;;;;;;5010948;28;20464;-62
2024/04/01 09:21:27;;;;;;;0.30;0.30;;;;;;;;;;5008529;28;20056;-62
2024/04/01 09:23:53;;;;;;;16.02;9.07;;;;;;;;;;5011471;28;20058;-61
2024/04/01 09:26:19;;;;;;;1.00;0.65;;;;;;;;;;5013289;28;20415;-60
2024/04/01 09:28:46;;;;;;;12.13;1.70;;;;;;;;;;5009165;28;20030;-60
2024/04/01 09:31:13;;;;;;;0.65;0.30;;;;;;;;;;5008361;28;20061;-61
2024/04/01 09:33:39;;;;;;;0.20;0.20;;;;;;;;;;5006357;28;20030;-61
2024/04/01 09:36:07;;;;;;;0.20;0.20;;;;;;;;;;5009505;28;20402;-60
2024/04/01 09:38:34;;;;;;;0.30;0.20;;;;;;;;;;5009689;28;20057;-62
2024/04/01 09:41:00;;;;;;;3.10;2.00;;;;;;;;;;5006629;28;20050;-63
2024/04/01 09:43:30;;;;;;;0.75;0.70;;;;;;;;;;5008341;28;20037;-60
2024/04/01 09:45:57;;;;;;;2.25;1.00;;;;;;;;;;5011546;28;20046;-60
2024/04/01 09:48:26;;;;;;;2.05;0.90;;;;;;;;;;5008918;28;20029;-60
2024/04/01 09:50:59;;;;;;;0.98;0.50;;;;;;;;;;5008616;28;20046;-60
2024/04/01 09:53:27;;;;;;;1.02;0.30;;;;;;;;;;5008426;28;20041;-60
2024/04/01 09:56:19;;;;;;;0.30;0.20;;;;;;;;;;5008179;28;20057;-61
2024/04/01 09:59:06;;;;;;;2.15;0.20;;;;;;;;;;5007047;28;20060;-64
2024/04/01 10:02:13;;;;;;;0.20;0.20;;;;;;;;;;5005887;28;20050;-61
2024/04/01 10:05:10;;;;;;;1.23;0.30;;;;;;;;;;5002989;28;20496;-61
2024/04/01 10:07:48;;;;;;;0.50;0.20;;;;;;;;;;4989338;28;20418;-60
2024/04/01 10:10:44;;;;;;;2.65;0.30;;;;;;;;;;5009805;28;20564;-61
2024/04/01 10:13:32;;;;;;;0.20;0.20;;;;;;;;;;5013113;28;20025;-60
2024/04/01 10:16:22;;;;;;;0.43;0.20;;;;;;;;;;5004377;28;20041;-60
2024/04/01 10:19:15;;;;;;;0.30;0.30;;;;;;;;;;5008834;28;20500;-62
2024/04/01 10:22:11;;;;;;;3.40;0.63;;;;;;;;;;5007155;28;20057;-62
2024/04/01 10:24:43;;;;;;;0.25;0.20;;;;;;;;;;5003782;28;20509;-63
2024/04/01 10:27:24;;;;;;;2.75;0.98;;;;;;;;;;5011819;28;20053;-62
2024/04/01 10:30:12;;;;;;;0.32;0.30;;;;;;;;;;5011727;28;20412;-64
2024/04/01 10:32:51;;;;;;;0.50;0.40;;;;;;;;;;5012792;28;20048;-63
2024/04/01 10:35:42;;;;;;;0.77;0.40;;;;;;;;;;5013394;28;20053;-66
2024/04/01 10:38:19;;;;;;;1.13;0.63;;;;;;;;;;5012737;28;20048;-67
2024/04/01 10:41:09;;;;;;;0.70;0.40;;;;;;;;;;5013072;28;20041;-67
2024/04/01 10:43:44;;;;;;;0.43;0.30;;;;;;;;;;5009009;28;20416;-64
2024/04/01 10:46:10;;;;;;;2.92;1.67;;;;;;;;;;5013101;28;20497;-64
2024/04/01 10:48:52;;;;;;;0.75;0.40;;;;;;;;;;5015583;28;20178;-63
2024/04/01 10:51:30;;;;;;;7.35;2.95;;;;;;;;;;5011154;28;20057;-64
2024/04/01 10:53:59;;;;;;;0.50;0.50;;;;;;;;;;5015830;28;20041;-63
2024/04/01 10:56:46;;;;;;;0.63;0.50;;;;;;;;;;5007534;28;20382;-64
2024/04/01 10:59:46;;;;;;;1.85;0.63;;;;;;;;;;5014271;28;20038;-64
2024/04/01 11:02:30;;;;;;;0.20;0.20;;;;;;;;;;5010431;28;20375;-63
2024/04/01 11:05:11;;;;;;;0.30;0.30;;;;;;;;;;5011939;28;20054;-65
2024/04/01 11:07:46;;;;;;;0.20;0.20;;;;;;;;;;5012071;28;20153;-63
2024/04/01 11:10:44;;;;;;;1.65;0.35;;;;;;;;;;5013304;28;20409;-63
2024/04/01 11:13:22;;;;;;;0.20;0.20;;;;;;;;;;5002622;28;20509;-63
2024/04/01 11:15:54;;;;;;;0.30;0.30;;;;;;;;;;5011640;28;20054;-63
2024/04/01 11:18:32;;;;;;;1.05;0.43;;;;;;;;;;5014940;28;20046;-62
2024/04/01 11:21:37;;;;;;;0.98;0.40;;;;;;;;;;5010655;28;20410;-62
2024/04/01 11:24:28;;;;;;;0.75;0.30;;;;;;;;;;4988224;28;20041;-66
2024/04/01 11:27:16;;;;;;;1.25;0.80;;;;;;;;;;5005023;28;20493;-66
2024/04/01 11:30:05;;;;;;;0.30;0.20;;;;;;;;;;5009953;28;20034;-67
2024/04/01 11:32:38;;;;;;;1.27;0.30;;;;;;;;;;5008781;28;20061;-67
2024/04/01 11:35:23;;;;;;;0.22;0.22;;;;;;;;;;5011622;28;20061;-64
2024/04/01 11:37:55;;;;;;;0.43;0.20;;;;;;;;;;5010546;28;20041;-63
2024/04/01 11:40:27;;;;;;;0.40;0.30;;;;;;;;;;5011145;28;20029;-63
2024/04/01 11:43:04;;;;;;;0.63;0.40;;;;;;;;;;5014209;28;20058;-62
2024/04/01 11:45:37;;;;;;;7.60;4.70;;;;;;;;;;5016141;28;20046;-61
2024/04/01 11:48:05;;;;;;;0.45;0.30;;;;;;;;;;5012698;28;20591;-62
2024/04/01 11:50:31;;;;;;;1.30;0.20;;;;;;;;;;5006782;28;20029;-62
2024/04/01 11:52:57;;;;;;;0.50;0.30;;;;;;;;;;5011173;28;20132;-63
2024/04/01 11:55:24;;;;;;;0.88;0.30;;;;;;;;;;5013750;28;20045;-65
2024/04/01 11:57:51;;;;;;;1.05;0.60;;;;;;;;;;5010013;28;20061;-61
2024/04/01 12:00:18;;;;;;;6.88;2.33;;;;;;;;;;5004955;28;20042;-63
2024/04/01 12:02:53;;;;;;;4.32;2.60;;;;;;;;;;5011958;28;20072;-65
2024/04/01 12:05:19;;;;;;;6.15;3.20;;;;;;;;;;5008607;28;20518;-64
2024/04/01 12:07:46;;;;;;;2.28;1.15;;;;;;;;;;5011154;28;20060;-63
2024/04/01 12:10:16;;;;;;;1.17;0.70;;;;;;;;;;5009964;28;20560;-61
2024/04/01 12:12:45;;;;;;;0.32;0.30;;;;;;;;;;5011873;28;20060;-64
2024/04/01 12:15:17;;;;;;;0.20;0.20;;;;;;;;;;5012519;28;20033;-64
2024/04/01 12:17:44;;;;;;;0.68;0.30;;;;;;;;;;5012912;28;20052;-62
2024/04/01 12:20:10;;;;;;;0.22;0.20;;;;;;;;;;5012779;28;20486;-61
2024/04/01 12:22:37;;;;;;;0.15;0.15;;;;;;;;;;5008105;28;20080;-61
2024/04/01 12:25:04;;;;;;;0.22;0.20;;;;;;;;;;5011133;28;20041;-62
2024/04/01 12:27:32;;;;;;;1.15;0.55;;;;;;;;;;5012075;28;20065;-63
2024/04/01 12:30:01;;;;;;;1.02;0.57;;;;;;;;;;5012411;28;20057;-63
2024/04/01 12:32:27;;;;;;;1.30;0.40;;;;;;;;;;5007315;28;20053;-62
2024/04/01 12:34:55;;;;;;;4.88;0.70;;;;;;;;;;5011988;28;20034;-62
2024/04/01 12:37:25;;;;;;;0.60;0.40;;;;;;;;;;5012723;28;20097;-63
2024/04/01 12:39:52;;;;;;;2.45;1.00;;;;;;;;;;5011137;28;20389;-62
2024/04/01 12:42:19;;;;;;;0.82;0.40;;;;;;;;;;5009440;28;20049;-61
2024/04/01 12:44:45;;;;;;;0.93;0.50;;;;;;;;;;5014047;28;20041;-62
2024/04/01 12:47:13;;;;;;;0.30;0.30;;;;;;;;;;5014133;28;20029;-61
2024/04/01 12:49:41;;;;;;;0.77;0.30;;;;;;;;;;5013417;28;20045;-62
2024/04/01 12:52:07;;;;;;;1.10;0.65;;;;;;;;;;5011737;28;20037;-61
2024/04/01 12:55:07;;;;;;;2.15;0.70;;;;;;;;;;5015249;28;20049;-61
2024/04/01 12:57:51;;;;;;;0.90;0.40;;;;;;;;;;4996033;28;20125;-62
2024/04/01 13:00:23;;;;;;;3.05;0.30;;;;;;;;;;4999900;28;20042;-61
2024/04/01 13:03:14;;;;;;;0.70;0.30;;;;;;;;;;5012136;28;20061;-61
2024/04/01 13:05:47;;;;;;;0.98;0.43;;;;;;;;;;5008232;28;20389;-61
2024/04/01 13:08:31;;;;;;;0.20;0.10;;;;;;;;;;5007870;28;20426;-62
2024/04/01 13:11:26;;;;;;;0.38;0.38;;;;;;;;;;5013053;28;20053;-61
2024/04/01 13:14:14;;;;;;;3.90;2.47;;;;;;;;;;5012363;28;20041;-61
2024/04/01 13:16:59;;;;;;;0.98;0.20;;;;;;;;;;5008998;28;20155;-62
2024/04/01 13:19:33;;;;;;;0.30;0.30;;;;;;;;;;5009361;28;20042;-62
2024/04/01 13:22:40;;;;;;;0.40;0.40;;;;;;;;;;5009910;28;20486;-62
2024/04/01 13:25:19;;;;;;;1.05;0.55;;;;;;;;;;5004036;28;20056;-61
2024/04/01 13:27:56;;;;;;;0.43;0.40;;;;;;;;;;5012137;28;20441;-63
2024/04/01 13:30:33;;;;;;;1.23;0.30;;;;;;;;;;5008695;28;20045;-62
2024/04/01 13:33:06;;;;;;;0.40;0.30;;;;;;;;;;5009383;28;20040;-61
2024/04/01 13:35:52;;;;;;;0.55;0.13;;;;;;;;;;5009314;28;20046;-62
2024/04/01 13:38:55;;;;;;;0.32;0.30;;;;;;;;;;5011234;28;20037;-62
2024/04/01 13:41:28;;;;;;;0.20;0.20;;;;;;;;;;4993244;28;20038;-63
2024/04/01 13:44:04;;;;;;;0.50;0.30;;;;;;;;;;5014201;28;20053;-62
2024/04/01 13:46:39;;;;;;;0.20;0.20;;;;;;;;;;5007095;28;20053;-63
2024/04/01 13:49:40;;;;;;;0.40;0.30;;;;;;;;;;5013131;28;20041;-63
2024/04/01 13:52:08;;;;;;;0.70;0.40;;;;;;;;;;4968023;28;20054;-63
2024/04/01 13:54:38;;;;;;;0.40;0.28;;;;;;;;;;5009901;28;20056;-63
2024/04/01 13:57:04;;;;;;;0.55;0.35;;;;;;;;;;5012313;28;20026;-64
2024/04/01 14:00:00;;;;;;;0.75;0.30;;;;;;;;;;5009830;28;20042;-63
2024/04/01 14:02:46;;;;;;;0.57;0.43;;;;;;;;;;5001024;28;20050;-64
2024/04/01 14:05:33;;;;;;;1.85;0.40;;;;;;;;;;5010660;28;20029;-64
2024/04/01 14:08:12;;;;;;;0.57;0.30;;;;;;;;;;5023716;28;20045;-62
2024/04/01 14:10:57;;;;;;;0.38;0.20;;;;;;;;;;5010533;28;20057;-63
2024/04/01 14:13:49;;;;;;;0.85;0.22;;;;;;;;;;5011911;28;20428;-63
2024/04/01 14:16:24;;;;;;;1.20;0.30;;;;;;;;;;5011013;28;20559;-63
2024/04/01 14:19:05;;;;;;;0.32;0.20;;;;;;;;;;5009142;28;20505;-62
2024/04/01 14:21:31;;;;;;;0.45;0.30;;;;;;;;;;5005320;28;20049;-64
2024/04/01 14:23:57;;;;;;;1.23;0.28;;;;;;;;;;5008289;28;20057;-62
2024/04/01 14:26:24;;;;;;;0.45;0.40;;;;;;;;;;5009664;28;20041;-62
2024/04/01 14:28:50;;;;;;;0.98;0.45;;;;;;;;;;5010432;28;20065;-62
2024/04/01 14:31:17;;;;;;;1.42;0.70;;;;;;;;;;5006765;28;20046;-63
2024/04/01 14:33:44;;;;;;;0.88;0.50;;;;;;;;;;5009127;28;20505;-63
2024/04/01 14:36:10;;;;;;;7.10;3.20;;;;;;;;;;5008808;28;20646;-64
2024/04/01 14:38:37;;;;;;;1.10;0.60;;;;;;;;;;5012727;28;20504;-65
2024/04/01 14:41:03;;;;;;;0.50;0.40;;;;;;;;;;5005785;28;20041;-63
2024/04/01 14:43:30;;;;;;;1.38;0.52;;;;;;;;;;5003704;28;20046;-64
2024/04/01 14:46:00;;;;;;;0.43;0.20;;;;;;;;;;5006663;28;20041;-64
2024/04/01 14:48:26;;;;;;;0.20;0.20;;;;;;;;;;5007761;28;20056;-63
2024/04/01 14:50:52;;;;;;;0.60;0.40;;;;;;;;;;5008710;28;20050;-63
2024/04/01 14:53:19;;;;;;;0.32;0.30;;;;;;;;;;5005824;28;20146;-62
2024/04/01 14:55:46;;;;;;;0.73;0.30;;;;;;;;;;5011509;28;20404;-63
2024/04/01 14:58:12;;;;;;;0.80;0.30;;;;;;;;;;5007114;28;20370;-65
2024/04/01 15:00:38;;;;;;;0.40;0.40;;;;;;;;;;5008571;28;20045;-63
2024/04/01 15:03:06;;;;;;;1.83;0.70;;;;;;;;;;5007126;28;20144;-63